sensor_id;sensor_type;location;lat;lon;timestamp;P1;durP1;ratioP1;P2;durP2;ratioP2
23800;SDS011;12081;48.614;10.226;2023-06-14T00:01:50;7.00;;;3.77;;
23800;SDS011;12081;48.614;10.226;2023-06-14T00:04:35;4.53;;;3.47;;
23800;SDS011;12081;48.614;10.226;2023-06-14T00:07:22;5.07;;;3.70;;
23800;SDS011;12081;48.614;10.226;2023-06-14T00:10:21;6.40;;;3.80;;
23800;SDS011;12081;48.614;10.226;2023-06-14T00:13:06;4.13;;;3.43;;
23800;SDS011;12081;48.614;10.226;2023-06-14T00:15:51;5.07;;;3.20;;
23800;SDS011;12081;48.614;10.226;2023-06-14T00:18:38;4.30;;;2.97;;
23800;SDS011;12081;48.614;10.226;2023-06-14T00:21:22;4.47;;;3.40;;
23800;SDS011;12081;48.614;10.226;2023-06-14T00:24:06;8.57;;;3.13;;
23800;SDS011;12081;48.614;10.226;2023-06-14T00:26:51;3.53;;;3.00;;
23800;SDS011;12081;48.614;10.226;2023-06-14T00:29:35;4.73;;;3.30;;
23800;SDS011;12081;48.614;10.226;2023-06-14T00:32:19;4.37;;;2.83;;
23800;SDS011;12081;48.614;10.226;2023-06-14T00:35:08;4.20;;;3.50;;
23800;SDS011;12081;48.614;10.226;2023-06-14T00:37:53;6.37;;;3.40;;
23800;SDS011;12081;48.614;10.226;2023-06-14T00:40:38;3.97;;;3.20;;
23800;SDS011;12081;48.614;10.226;2023-06-14T00:43:23;5.20;;;3.03;;
23800;SDS011;12081;48.614;10.226;2023-06-14T00:46:07;8.33;;;2.90;;
23800;SDS011;12081;48.614;10.226;2023-06-14T00:48:51;4.47;;;3.20;;
23800;SDS011;12081;48.614;10.226;2023-06-14T00:51:36;7.40;;;3.60;;
23800;SDS011;12081;48.614;10.226;2023-06-14T00:54:21;4.17;;;3.13;;
23800;SDS011;12081;48.614;10.226;2023-06-14T00:57:05;4.00;;;3.40;;
23800;SDS011;12081;48.614;10.226;2023-06-14T00:59:49;3.93;;;3.23;;
23800;SDS011;12081;48.614;10.226;2023-06-14T01:02:34;4.27;;;3.23;;
23800;SDS011;12081;48.614;10.226;2023-06-14T01:05:22;4.40;;;3.33;;
23800;SDS011;12081;48.614;10.226;2023-06-14T01:08:17;4.13;;;3.00;;
23800;SDS011;12081;48.614;10.226;2023-06-14T01:11:12;4.50;;;3.20;;
23800;SDS011;12081;48.614;10.226;2023-06-14T01:14:15;4.67;;;3.30;;
23800;SDS011;12081;48.614;10.226;2023-06-14T01:17:01;7.17;;;3.47;;
23800;SDS011;12081;48.614;10.226;2023-06-14T01:19:45;4.50;;;3.53;;
23800;SDS011;12081;48.614;10.226;2023-06-14T01:22:29;4.50;;;3.60;;
23800;SDS011;12081;48.614;10.226;2023-06-14T01:25:14;5.47;;;3.97;;
23800;SDS011;12081;48.614;10.226;2023-06-14T01:28:00;5.90;;;3.73;;
23800;SDS011;12081;48.614;10.226;2023-06-14T01:30:51;3.87;;;3.27;;
23800;SDS011;12081;48.614;10.226;2023-06-14T01:33:38;5.23;;;3.60;;
23800;SDS011;12081;48.614;10.226;2023-06-14T01:36:22;6.57;;;4.23;;
23800;SDS011;12081;48.614;10.226;2023-06-14T01:39:12;4.00;;;3.60;;
23800;SDS011;12081;48.614;10.226;2023-06-14T01:41:58;5.43;;;3.83;;
23800;SDS011;12081;48.614;10.226;2023-06-14T01:44:43;5.93;;;3.80;;
23800;SDS011;12081;48.614;10.226;2023-06-14T01:47:29;4.27;;;3.70;;
23800;SDS011;12081;48.614;10.226;2023-06-14T01:50:14;6.43;;;3.87;;
23800;SDS011;12081;48.614;10.226;2023-06-14T01:52:58;7.17;;;4.23;;
23800;SDS011;12081;48.614;10.226;2023-06-14T01:55:43;4.63;;;3.60;;
23800;SDS011;12081;48.614;10.226;2023-06-14T01:58:28;7.00;;;3.50;;
23800;SDS011;12081;48.614;10.226;2023-06-14T02:01:12;4.23;;;3.33;;
23800;SDS011;12081;48.614;10.226;2023-06-14T02:03:56;4.47;;;3.30;;
23800;SDS011;12081;48.614;10.226;2023-06-14T02:06:40;4.77;;;4.03;;
23800;SDS011;12081;48.614;10.226;2023-06-14T02:09:24;6.03;;;3.70;;
23800;SDS011;12081;48.614;10.226;2023-06-14T02:12:08;7.63;;;3.43;;
23800;SDS011;12081;48.614;10.226;2023-06-14T02:14:54;5.50;;;3.53;;
23800;SDS011;12081;48.614;10.226;2023-06-14T02:17:40;6.57;;;3.70;;
23800;SDS011;12081;48.614;10.226;2023-06-14T02:20:25;4.53;;;3.53;;
23800;SDS011;12081;48.614;10.226;2023-06-14T02:23:09;6.53;;;3.97;;
23800;SDS011;12081;48.614;10.226;2023-06-14T02:25:53;9.10;;;3.90;;
23800;SDS011;12081;48.614;10.226;2023-06-14T02:28:37;7.00;;;4.67;;
23800;SDS011;12081;48.614;10.226;2023-06-14T02:31:21;10.30;;;4.43;;
23800;SDS011;12081;48.614;10.226;2023-06-14T02:34:06;6.37;;;4.47;;
23800;SDS011;12081;48.614;10.226;2023-06-14T02:36:52;10.87;;;4.77;;
23800;SDS011;12081;48.614;10.226;2023-06-14T02:39:36;5.97;;;3.80;;
23800;SDS011;12081;48.614;10.226;2023-06-14T05:31:34;6.13;;;4.10;;
23800;SDS011;12081;48.614;10.226;2023-06-14T05:34:18;6.87;;;4.17;;
23800;SDS011;12081;48.614;10.226;2023-06-14T05:37:03;4.17;;;3.53;;
23800;SDS011;12081;48.614;10.226;2023-06-14T05:39:48;4.97;;;3.97;;
23800;SDS011;12081;48.614;10.226;2023-06-14T05:42:32;8.13;;;4.20;;
23800;SDS011;12081;48.614;10.226;2023-06-14T05:45:16;4.90;;;4.13;;
23800;SDS011;12081;48.614;10.226;2023-06-14T05:48:00;7.20;;;3.67;;
23800;SDS011;12081;48.614;10.226;2023-06-14T05:50:45;7.73;;;3.97;;
23800;SDS011;12081;48.614;10.226;2023-06-14T05:53:29;5.53;;;4.00;;
23800;SDS011;12081;48.614;10.226;2023-06-14T05:56:13;6.10;;;3.40;;
23800;SDS011;12081;48.614;10.226;2023-06-14T05:58:58;4.20;;;3.80;;
23800;SDS011;12081;48.614;10.226;2023-06-14T06:01:42;8.47;;;3.70;;
23800;SDS011;12081;48.614;10.226;2023-06-14T06:04:27;5.90;;;3.90;;
23800;SDS011;12081;48.614;10.226;2023-06-14T06:07:11;5.97;;;3.50;;
23800;SDS011;12081;48.614;10.226;2023-06-14T06:09:55;10.60;;;3.80;;
23800;SDS011;12081;48.614;10.226;2023-06-14T06:12:41;6.03;;;4.10;;
23800;SDS011;12081;48.614;10.226;2023-06-14T06:15:26;6.60;;;3.97;;
23800;SDS011;12081;48.614;10.226;2023-06-14T06:18:10;6.00;;;3.57;;
23800;SDS011;12081;48.614;10.226;2023-06-14T06:20:54;5.23;;;3.33;;
23800;SDS011;12081;48.614;10.226;2023-06-14T06:23:39;5.60;;;3.50;;
23800;SDS011;12081;48.614;10.226;2023-06-14T06:26:23;4.03;;;3.37;;
23800;SDS011;12081;48.614;10.226;2023-06-14T06:29:07;5.83;;;2.97;;
23800;SDS011;12081;48.614;10.226;2023-06-14T06:31:51;5.90;;;3.17;;
23800;SDS011;12081;48.614;10.226;2023-06-14T06:34:35;4.93;;;3.07;;
23800;SDS011;12081;48.614;10.226;2023-06-14T06:37:20;4.73;;;3.60;;
23800;SDS011;12081;48.614;10.226;2023-06-14T06:40:04;8.37;;;3.50;;
23800;SDS011;12081;48.614;10.226;2023-06-14T06:42:49;5.03;;;3.70;;
23800;SDS011;12081;48.614;10.226;2023-06-14T06:45:33;3.77;;;3.27;;
23800;SDS011;12081;48.614;10.226;2023-06-14T06:48:17;6.90;;;3.50;;
23800;SDS011;12081;48.614;10.226;2023-06-14T06:51:02;4.10;;;3.20;;
23800;SDS011;12081;48.614;10.226;2023-06-14T06:53:51;5.43;;;3.30;;
23800;SDS011;12081;48.614;10.226;2023-06-14T06:56:36;4.70;;;3.20;;
23800;SDS011;12081;48.614;10.226;2023-06-14T06:59:21;5.03;;;3.30;;
23800;SDS011;12081;48.614;10.226;2023-06-14T07:02:05;5.37;;;3.37;;
23800;SDS011;12081;48.614;10.226;2023-06-14T07:04:50;5.47;;;3.50;;
23800;SDS011;12081;48.614;10.226;2023-06-14T07:07:34;4.07;;;3.33;;
23800;SDS011;12081;48.614;10.226;2023-06-14T07:10:18;4.70;;;3.70;;
23800;SDS011;12081;48.614;10.226;2023-06-14T07:13:02;5.10;;;3.50;;
23800;SDS011;12081;48.614;10.226;2023-06-14T07:15:47;4.90;;;3.20;;
23800;SDS011;12081;48.614;10.226;2023-06-14T07:18:31;4.60;;;3.33;;
23800;SDS011;12081;48.614;10.226;2023-06-14T07:21:15;4.33;;;3.30;;
23800;SDS011;12081;48.614;10.226;2023-06-14T07:23:59;4.87;;;3.00;;
23800;SDS011;12081;48.614;10.226;2023-06-14T07:26:44;5.68;;;3.13;;
23800;SDS011;12081;48.614;10.226;2023-06-14T07:29:28;6.47;;;3.22;;
23800;SDS011;12081;48.614;10.226;2023-06-14T07:32:12;5.87;;;3.33;;
23800;SDS011;12081;48.614;10.226;2023-06-14T07:34:56;5.45;;;3.60;;
23800;SDS011;12081;48.614;10.226;2023-06-14T07:37:40;5.20;;;3.97;;
23800;SDS011;12081;48.614;10.226;2023-06-14T07:40:24;5.65;;;3.80;;
23800;SDS011;12081;48.614;10.226;2023-06-14T07:43:08;8.02;;;4.03;;
23800;SDS011;12081;48.614;10.226;2023-06-14T07:45:52;4.70;;;3.92;;
23800;SDS011;12081;48.614;10.226;2023-06-14T07:48:36;4.07;;;3.67;;
23800;SDS011;12081;48.614;10.226;2023-06-14T07:51:20;7.53;;;3.40;;
23800;SDS011;12081;48.614;10.226;2023-06-14T07:54:06;3.80;;;3.15;;
23800;SDS011;12081;48.614;10.226;2023-06-14T07:56:52;4.97;;;3.35;;
23800;SDS011;12081;48.614;10.226;2023-06-14T07:59:36;4.22;;;3.28;;
23800;SDS011;12081;48.614;10.226;2023-06-14T08:02:20;5.43;;;3.13;;
23800;SDS011;12081;48.614;10.226;2023-06-14T08:05:04;4.57;;;3.70;;
23800;SDS011;12081;48.614;10.226;2023-06-14T08:07:49;4.13;;;3.38;;
23800;SDS011;12081;48.614;10.226;2023-06-14T08:10:33;5.35;;;2.92;;
23800;SDS011;12081;48.614;10.226;2023-06-14T08:13:17;6.78;;;3.75;;
23800;SDS011;12081;48.614;10.226;2023-06-14T08:16:01;5.82;;;3.30;;
23800;SDS011;12081;48.614;10.226;2023-06-14T08:18:48;3.92;;;3.03;;
23800;SDS011;12081;48.614;10.226;2023-06-14T08:21:32;5.53;;;3.22;;
23800;SDS011;12081;48.614;10.226;2023-06-14T08:24:17;11.25;;;3.90;;
23800;SDS011;12081;48.614;10.226;2023-06-14T08:27:02;3.97;;;3.30;;
23800;SDS011;12081;48.614;10.226;2023-06-14T08:29:46;3.78;;;3.05;;
23800;SDS011;12081;48.614;10.226;2023-06-14T08:32:30;5.97;;;3.38;;
23800;SDS011;12081;48.614;10.226;2023-06-14T08:35:14;3.40;;;3.10;;
23800;SDS011;12081;48.614;10.226;2023-06-14T08:37:59;3.60;;;3.15;;
23800;SDS011;12081;48.614;10.226;2023-06-14T08:40:43;5.18;;;3.50;;
23800;SDS011;12081;48.614;10.226;2023-06-14T08:43:31;4.70;;;2.97;;
23800;SDS011;12081;48.614;10.226;2023-06-14T08:46:17;3.53;;;2.85;;
23800;SDS011;12081;48.614;10.226;2023-06-14T08:49:03;4.30;;;3.35;;
23800;SDS011;12081;48.614;10.226;2023-06-14T08:51:51;4.43;;;3.38;;
23800;SDS011;12081;48.614;10.226;2023-06-14T08:54:41;6.93;;;2.78;;
23800;SDS011;12081;48.614;10.226;2023-06-14T08:57:27;5.60;;;3.08;;
23800;SDS011;12081;48.614;10.226;2023-06-14T09:00:14;3.72;;;3.30;;
23800;SDS011;12081;48.614;10.226;2023-06-14T09:02:58;2.55;;;2.35;;
23800;SDS011;12081;48.614;10.226;2023-06-14T09:05:43;4.57;;;2.90;;
23800;SDS011;12081;48.614;10.226;2023-06-14T09:08:28;4.93;;;2.80;;
23800;SDS011;12081;48.614;10.226;2023-06-14T09:11:15;4.18;;;3.10;;
23800;SDS011;12081;48.614;10.226;2023-06-14T09:14:02;4.97;;;3.22;;
23800;SDS011;12081;48.614;10.226;2023-06-14T09:16:46;4.40;;;2.95;;
23800;SDS011;12081;48.614;10.226;2023-06-14T09:19:30;3.58;;;2.78;;
23800;SDS011;12081;48.614;10.226;2023-06-14T09:22:16;4.53;;;3.45;;
23800;SDS011;12081;48.614;10.226;2023-06-14T09:25:01;5.47;;;2.78;;
23800;SDS011;12081;48.614;10.226;2023-06-14T09:27:45;4.05;;;2.58;;
23800;SDS011;12081;48.614;10.226;2023-06-14T09:30:30;6.88;;;2.75;;
23800;SDS011;12081;48.614;10.226;2023-06-14T09:33:17;3.13;;;2.70;;
23800;SDS011;12081;48.614;10.226;2023-06-14T09:36:02;5.10;;;2.90;;
23800;SDS011;12081;48.614;10.226;2023-06-14T09:38:57;2.90;;;2.70;;
23800;SDS011;12081;48.614;10.226;2023-06-14T09:41:42;3.33;;;2.72;;
23800;SDS011;12081;48.614;10.226;2023-06-14T09:44:27;4.57;;;2.92;;
23800;SDS011;12081;48.614;10.226;2023-06-14T09:47:12;3.05;;;2.78;;
23800;SDS011;12081;48.614;10.226;2023-06-14T09:49:56;2.90;;;2.60;;
23800;SDS011;12081;48.614;10.226;2023-06-14T09:52:42;3.95;;;2.60;;
23800;SDS011;12081;48.614;10.226;2023-06-14T09:55:27;3.67;;;2.72;;
23800;SDS011;12081;48.614;10.226;2023-06-14T09:58:17;3.95;;;3.17;;
23800;SDS011;12081;48.614;10.226;2023-06-14T10:01:06;3.30;;;3.00;;
23800;SDS011;12081;48.614;10.226;2023-06-14T10:03:53;4.15;;;2.97;;
23800;SDS011;12081;48.614;10.226;2023-06-14T10:06:45;4.00;;;2.88;;
23800;SDS011;12081;48.614;10.226;2023-06-14T10:09:30;3.70;;;2.60;;
23800;SDS011;12081;48.614;10.226;2023-06-14T10:12:18;3.10;;;2.80;;
23800;SDS011;12081;48.614;10.226;2023-06-14T10:15:08;4.53;;;2.55;;
23800;SDS011;12081;48.614;10.226;2023-06-14T10:21:14;4.90;;;3.42;;
23800;SDS011;12081;48.614;10.226;2023-06-14T10:24:19;3.33;;;3.03;;
23800;SDS011;12081;48.614;10.226;2023-06-14T10:27:09;3.25;;;2.92;;
23800;SDS011;12081;48.614;10.226;2023-06-14T10:33:02;3.10;;;2.80;;
23800;SDS011;12081;48.614;10.226;2023-06-14T10:35:54;7.05;;;3.15;;
23800;SDS011;12081;48.614;10.226;2023-06-14T10:39:07;4.28;;;2.55;;
23800;SDS011;12081;48.614;10.226;2023-06-14T10:42:01;4.80;;;2.90;;
23800;SDS011;12081;48.614;10.226;2023-06-14T10:44:51;3.58;;;2.28;;
23800;SDS011;12081;48.614;10.226;2023-06-14T10:47:39;3.05;;;2.67;;
23800;SDS011;12081;48.614;10.226;2023-06-14T10:50:29;2.92;;;2.40;;
23800;SDS011;12081;48.614;10.226;2023-06-14T10:53:22;4.65;;;3.03;;
23800;SDS011;12081;48.614;10.226;2023-06-14T10:56:08;4.63;;;2.65;;
23800;SDS011;12081;48.614;10.226;2023-06-14T10:58:52;3.80;;;2.58;;
23800;SDS011;12081;48.614;10.226;2023-06-14T11:01:38;4.20;;;2.50;;
23800;SDS011;12081;48.614;10.226;2023-06-14T11:04:51;3.13;;;2.70;;
23800;SDS011;12081;48.614;10.226;2023-06-14T11:11:08;8.20;;;2.67;;
23800;SDS011;12081;48.614;10.226;2023-06-14T11:13:56;4.15;;;3.03;;
23800;SDS011;12081;48.614;10.226;2023-06-14T11:16:40;5.15;;;2.97;;
23800;SDS011;12081;48.614;10.226;2023-06-14T11:19:24;5.50;;;2.53;;
23800;SDS011;12081;48.614;10.226;2023-06-14T11:22:12;5.10;;;2.50;;
23800;SDS011;12081;48.614;10.226;2023-06-14T11:24:58;3.25;;;2.50;;
23800;SDS011;12081;48.614;10.226;2023-06-14T11:27:46;3.58;;;3.00;;
23800;SDS011;12081;48.614;10.226;2023-06-14T11:30:32;6.78;;;3.05;;
23800;SDS011;12081;48.614;10.226;2023-06-14T11:33:17;4.80;;;2.50;;
23800;SDS011;12081;48.614;10.226;2023-06-14T11:36:05;3.47;;;2.80;;
23800;SDS011;12081;48.614;10.226;2023-06-14T11:38:57;3.53;;;2.60;;
23800;SDS011;12081;48.614;10.226;2023-06-14T11:41:44;4.68;;;3.15;;
23800;SDS011;12081;48.614;10.226;2023-06-14T11:44:29;5.53;;;2.80;;
23800;SDS011;12081;48.614;10.226;2023-06-14T11:47:15;5.05;;;2.33;;
23800;SDS011;12081;48.614;10.226;2023-06-14T11:50:00;5.13;;;2.67;;
23800;SDS011;12081;48.614;10.226;2023-06-14T11:52:44;3.05;;;2.50;;
23800;SDS011;12081;48.614;10.226;2023-06-14T11:55:28;3.97;;;2.67;;
23800;SDS011;12081;48.614;10.226;2023-06-14T11:58:13;2.95;;;2.67;;
23800;SDS011;12081;48.614;10.226;2023-06-14T12:00:57;4.00;;;2.83;;
23800;SDS011;12081;48.614;10.226;2023-06-14T12:03:47;5.68;;;2.65;;
23800;SDS011;12081;48.614;10.226;2023-06-14T12:06:32;3.67;;;2.45;;
23800;SDS011;12081;48.614;10.226;2023-06-14T12:09:17;6.53;;;3.13;;
23800;SDS011;12081;48.614;10.226;2023-06-14T12:12:01;5.07;;;2.80;;
23800;SDS011;12081;48.614;10.226;2023-06-14T12:14:47;3.70;;;2.33;;
23800;SDS011;12081;48.614;10.226;2023-06-14T12:17:35;5.93;;;2.67;;
23800;SDS011;12081;48.614;10.226;2023-06-14T12:20:20;3.22;;;2.65;;
23800;SDS011;12081;48.614;10.226;2023-06-14T12:23:05;3.33;;;2.85;;
23800;SDS011;12081;48.614;10.226;2023-06-14T12:25:49;4.85;;;3.15;;
23800;SDS011;12081;48.614;10.226;2023-06-14T12:28:35;3.60;;;2.65;;
23800;SDS011;12081;48.614;10.226;2023-06-14T12:31:19;4.05;;;2.55;;
23800;SDS011;12081;48.614;10.226;2023-06-14T12:34:03;4.00;;;2.88;;
23800;SDS011;12081;48.614;10.226;2023-06-14T12:36:47;6.60;;;3.03;;
23800;SDS011;12081;48.614;10.226;2023-06-14T12:39:31;3.90;;;2.60;;
23800;SDS011;12081;48.614;10.226;2023-06-14T12:42:16;4.43;;;2.70;;
23800;SDS011;12081;48.614;10.226;2023-06-14T12:45:00;6.88;;;2.80;;
23800;SDS011;12081;48.614;10.226;2023-06-14T12:47:45;6.88;;;2.75;;
23800;SDS011;12081;48.614;10.226;2023-06-14T12:50:29;4.03;;;2.75;;
23800;SDS011;12081;48.614;10.226;2023-06-14T12:53:14;4.80;;;2.85;;
23800;SDS011;12081;48.614;10.226;2023-06-14T12:55:58;3.60;;;3.10;;
23800;SDS011;12081;48.614;10.226;2023-06-14T12:58:43;4.00;;;3.13;;
23800;SDS011;12081;48.614;10.226;2023-06-14T13:01:27;6.88;;;3.10;;
23800;SDS011;12081;48.614;10.226;2023-06-14T13:04:11;3.28;;;2.97;;
23800;SDS011;12081;48.614;10.226;2023-06-14T13:06:55;3.50;;;2.75;;
23800;SDS011;12081;48.614;10.226;2023-06-14T13:09:39;4.03;;;2.97;;
23800;SDS011;12081;48.614;10.226;2023-06-14T13:12:24;4.28;;;3.00;;
23800;SDS011;12081;48.614;10.226;2023-06-14T13:15:08;6.32;;;2.72;;
23800;SDS011;12081;48.614;10.226;2023-06-14T13:17:53;6.80;;;3.00;;
23800;SDS011;12081;48.614;10.226;2023-06-14T13:20:37;3.20;;;2.90;;
23800;SDS011;12081;48.614;10.226;2023-06-14T13:23:21;4.80;;;3.25;;
23800;SDS011;12081;48.614;10.226;2023-06-14T13:26:05;3.10;;;2.80;;
23800;SDS011;12081;48.614;10.226;2023-06-14T13:28:49;3.60;;;2.97;;
23800;SDS011;12081;48.614;10.226;2023-06-14T13:31:34;6.10;;;3.00;;
23800;SDS011;12081;48.614;10.226;2023-06-14T13:34:18;4.30;;;2.95;;
23800;SDS011;12081;48.614;10.226;2023-06-14T13:37:02;2.90;;;2.67;;
23800;SDS011;12081;48.614;10.226;2023-06-14T13:39:46;3.78;;;3.00;;
23800;SDS011;12081;48.614;10.226;2023-06-14T13:42:31;3.63;;;2.80;;
23800;SDS011;12081;48.614;10.226;2023-06-14T13:45:15;3.65;;;3.10;;
23800;SDS011;12081;48.614;10.226;2023-06-14T13:48:00;3.45;;;2.70;;
23800;SDS011;12081;48.614;10.226;2023-06-14T13:50:44;4.40;;;2.50;;
23800;SDS011;12081;48.614;10.226;2023-06-14T13:53:29;4.10;;;2.67;;
23800;SDS011;12081;48.614;10.226;2023-06-14T13:56:15;2.95;;;2.75;;
23800;SDS011;12081;48.614;10.226;2023-06-14T13:58:59;2.95;;;2.67;;
23800;SDS011;12081;48.614;10.226;2023-06-14T14:01:44;5.35;;;3.03;;
23800;SDS011;12081;48.614;10.226;2023-06-14T14:04:28;4.35;;;2.78;;
23800;SDS011;12081;48.614;10.226;2023-06-14T14:07:12;3.35;;;2.83;;
23800;SDS011;12081;48.614;10.226;2023-06-14T14:09:56;3.03;;;2.70;;
23800;SDS011;12081;48.614;10.226;2023-06-14T14:12:40;5.00;;;2.83;;
23800;SDS011;12081;48.614;10.226;2023-06-14T14:15:25;4.63;;;2.75;;
23800;SDS011;12081;48.614;10.226;2023-06-14T14:18:09;2.90;;;2.60;;
23800;SDS011;12081;48.614;10.226;2023-06-14T14:20:54;4.93;;;2.90;;
23800;SDS011;12081;48.614;10.226;2023-06-14T14:23:38;4.00;;;2.78;;
23800;SDS011;12081;48.614;10.226;2023-06-14T14:26:23;3.85;;;2.85;;
23800;SDS011;12081;48.614;10.226;2023-06-14T14:29:08;4.28;;;3.03;;
23800;SDS011;12081;48.614;10.226;2023-06-14T14:31:55;5.97;;;3.30;;
23800;SDS011;12081;48.614;10.226;2023-06-14T14:34:40;4.15;;;2.40;;
23800;SDS011;12081;48.614;10.226;2023-06-14T14:37:24;4.53;;;2.80;;
23800;SDS011;12081;48.614;10.226;2023-06-14T14:40:09;3.75;;;2.67;;
23800;SDS011;12081;48.614;10.226;2023-06-14T14:42:53;3.67;;;2.60;;
23800;SDS011;12081;48.614;10.226;2023-06-14T14:45:38;5.57;;;3.00;;
23800;SDS011;12081;48.614;10.226;2023-06-14T14:48:21;4.97;;;2.60;;
23800;SDS011;12081;48.614;10.226;2023-06-14T14:51:06;5.50;;;2.72;;
23800;SDS011;12081;48.614;10.226;2023-06-14T14:53:49;2.55;;;2.35;;
23800;SDS011;12081;48.614;10.226;2023-06-14T14:56:34;2.92;;;2.72;;
23800;SDS011;12081;48.614;10.226;2023-06-14T14:59:21;4.32;;;3.33;;
23800;SDS011;12081;48.614;10.226;2023-06-14T15:02:05;4.70;;;3.22;;
23800;SDS011;12081;48.614;10.226;2023-06-14T15:04:50;4.70;;;3.20;;
23800;SDS011;12081;48.614;10.226;2023-06-14T15:07:35;3.83;;;2.67;;
23800;SDS011;12081;48.614;10.226;2023-06-14T15:10:19;3.80;;;2.50;;
23800;SDS011;12081;48.614;10.226;2023-06-14T15:13:03;4.97;;;2.50;;
23800;SDS011;12081;48.614;10.226;2023-06-14T15:15:47;3.50;;;3.08;;
23800;SDS011;12081;48.614;10.226;2023-06-14T15:18:31;6.13;;;2.80;;
23800;SDS011;12081;48.614;10.226;2023-06-14T15:21:15;3.20;;;2.80;;
23800;SDS011;12081;48.614;10.226;2023-06-14T15:24:02;4.60;;;2.90;;
23800;SDS011;12081;48.614;10.226;2023-06-14T15:26:46;4.90;;;2.92;;
23800;SDS011;12081;48.614;10.226;2023-06-14T15:29:30;3.28;;;2.97;;
23800;SDS011;12081;48.614;10.226;2023-06-14T15:32:14;4.20;;;2.95;;
23800;SDS011;12081;48.614;10.226;2023-06-14T15:34:59;5.32;;;3.20;;
23800;SDS011;12081;48.614;10.226;2023-06-14T15:37:42;4.55;;;2.80;;
23800;SDS011;12081;48.614;10.226;2023-06-14T15:40:26;3.53;;;3.15;;
23800;SDS011;12081;48.614;10.226;2023-06-14T15:43:12;4.57;;;2.70;;
23800;SDS011;12081;48.614;10.226;2023-06-14T15:45:58;3.13;;;2.70;;
23800;SDS011;12081;48.614;10.226;2023-06-14T15:48:42;3.28;;;2.80;;
23800;SDS011;12081;48.614;10.226;2023-06-14T15:51:26;4.50;;;3.13;;
23800;SDS011;12081;48.614;10.226;2023-06-14T15:54:10;3.10;;;2.80;;
23800;SDS011;12081;48.614;10.226;2023-06-14T15:56:54;7.18;;;2.90;;
23800;SDS011;12081;48.614;10.226;2023-06-14T15:59:38;5.45;;;3.25;;
23800;SDS011;12081;48.614;10.226;2023-06-14T16:02:22;3.55;;;2.90;;
23800;SDS011;12081;48.614;10.226;2023-06-14T16:05:06;5.85;;;2.70;;
23800;SDS011;12081;48.614;10.226;2023-06-14T16:07:51;5.32;;;3.00;;
23800;SDS011;12081;48.614;10.226;2023-06-14T16:10:36;3.15;;;2.85;;
23800;SDS011;12081;48.614;10.226;2023-06-14T16:13:20;3.35;;;3.05;;
23800;SDS011;12081;48.614;10.226;2023-06-14T16:16:04;5.07;;;3.40;;
23800;SDS011;12081;48.614;10.226;2023-06-14T16:18:48;3.97;;;3.20;;
23800;SDS011;12081;48.614;10.226;2023-06-14T16:21:33;4.10;;;2.65;;
23800;SDS011;12081;48.614;10.226;2023-06-14T16:24:20;3.28;;;2.88;;
23800;SDS011;12081;48.614;10.226;2023-06-14T16:27:04;4.15;;;2.97;;
23800;SDS011;12081;48.614;10.226;2023-06-14T16:29:50;3.28;;;2.92;;
23800;SDS011;12081;48.614;10.226;2023-06-14T16:32:34;5.25;;;3.00;;
23800;SDS011;12081;48.614;10.226;2023-06-14T16:35:17;7.43;;;3.13;;
23800;SDS011;12081;48.614;10.226;2023-06-14T16:38:02;5.43;;;2.80;;
23800;SDS011;12081;48.614;10.226;2023-06-14T16:40:46;4.63;;;3.13;;
23800;SDS011;12081;48.614;10.226;2023-06-14T16:43:30;7.57;;;3.30;;
23800;SDS011;12081;48.614;10.226;2023-06-14T16:46:14;4.22;;;3.00;;
23800;SDS011;12081;48.614;10.226;2023-06-14T16:49:12;7.25;;;3.10;;
23800;SDS011;12081;48.614;10.226;2023-06-14T16:51:56;3.15;;;2.85;;
23800;SDS011;12081;48.614;10.226;2023-06-14T16:54:41;6.43;;;3.00;;
23800;SDS011;12081;48.614;10.226;2023-06-14T16:57:25;8.07;;;3.00;;
23800;SDS011;12081;48.614;10.226;2023-06-14T17:00:09;12.38;;;3.38;;
23800;SDS011;12081;48.614;10.226;2023-06-14T17:02:54;4.28;;;3.20;;
23800;SDS011;12081;48.614;10.226;2023-06-14T17:05:39;13.63;;;3.67;;
23800;SDS011;12081;48.614;10.226;2023-06-14T17:08:40;4.88;;;2.92;;
23800;SDS011;12081;48.614;10.226;2023-06-14T17:11:25;5.07;;;3.10;;
23800;SDS011;12081;48.614;10.226;2023-06-14T17:14:09;5.70;;;2.60;;
23800;SDS011;12081;48.614;10.226;2023-06-14T17:16:54;6.88;;;3.13;;
23800;SDS011;12081;48.614;10.226;2023-06-14T17:19:38;4.97;;;3.00;;
23800;SDS011;12081;48.614;10.226;2023-06-14T17:22:22;6.30;;;2.50;;
23800;SDS011;12081;48.614;10.226;2023-06-14T17:25:07;5.07;;;2.88;;
23800;SDS011;12081;48.614;10.226;2023-06-14T17:27:51;2.78;;;2.53;;
23800;SDS011;12081;48.614;10.226;2023-06-14T17:30:35;3.30;;;2.70;;
23800;SDS011;12081;48.614;10.226;2023-06-14T17:33:19;5.82;;;2.92;;
23800;SDS011;12081;48.614;10.226;2023-06-14T17:36:03;4.47;;;2.90;;
23800;SDS011;12081;48.614;10.226;2023-06-14T17:38:48;4.50;;;2.75;;
23800;SDS011;12081;48.614;10.226;2023-06-14T17:41:32;7.32;;;2.60;;
23800;SDS011;12081;48.614;10.226;2023-06-14T17:44:16;3.83;;;2.58;;
23800;SDS011;12081;48.614;10.226;2023-06-14T17:47:00;4.85;;;2.72;;
23800;SDS011;12081;48.614;10.226;2023-06-14T17:49:44;5.95;;;3.03;;
23800;SDS011;12081;48.614;10.226;2023-06-14T17:52:28;3.85;;;3.40;;
23800;SDS011;12081;48.614;10.226;2023-06-14T17:55:12;5.90;;;3.22;;
23800;SDS011;12081;48.614;10.226;2023-06-14T17:57:57;9.02;;;2.80;;
23800;SDS011;12081;48.614;10.226;2023-06-14T18:00:41;4.03;;;2.95;;
23800;SDS011;12081;48.614;10.226;2023-06-14T18:03:25;4.35;;;3.00;;
23800;SDS011;12081;48.614;10.226;2023-06-14T18:06:09;4.30;;;2.72;;
23800;SDS011;12081;48.614;10.226;2023-06-14T18:08:53;3.13;;;2.83;;
23800;SDS011;12081;48.614;10.226;2023-06-14T18:11:37;4.95;;;3.22;;
23800;SDS011;12081;48.614;10.226;2023-06-14T18:14:21;4.55;;;3.08;;
23800;SDS011;12081;48.614;10.226;2023-06-14T18:17:05;4.65;;;3.05;;
23800;SDS011;12081;48.614;10.226;2023-06-14T18:19:49;4.78;;;3.20;;
23800;SDS011;12081;48.614;10.226;2023-06-14T18:22:33;5.40;;;3.10;;
23800;SDS011;12081;48.614;10.226;2023-06-14T18:25:17;3.88;;;3.05;;
23800;SDS011;12081;48.614;10.226;2023-06-14T18:28:01;4.43;;;2.67;;
23800;SDS011;12081;48.614;10.226;2023-06-14T18:30:46;3.78;;;3.05;;
23800;SDS011;12081;48.614;10.226;2023-06-14T18:33:30;5.07;;;3.35;;
23800;SDS011;12081;48.614;10.226;2023-06-14T18:36:14;3.97;;;3.30;;
23800;SDS011;12081;48.614;10.226;2023-06-14T18:38:58;4.50;;;3.28;;
23800;SDS011;12081;48.614;10.226;2023-06-14T18:41:42;3.83;;;2.97;;
23800;SDS011;12081;48.614;10.226;2023-06-14T18:44:26;5.90;;;3.25;;
23800;SDS011;12081;48.614;10.226;2023-06-14T18:47:10;5.05;;;3.35;;
23800;SDS011;12081;48.614;10.226;2023-06-14T18:49:55;8.23;;;3.25;;
23800;SDS011;12081;48.614;10.226;2023-06-14T18:52:39;6.10;;;3.15;;
23800;SDS011;12081;48.614;10.226;2023-06-14T18:55:23;4.40;;;3.38;;
23800;SDS011;12081;48.614;10.226;2023-06-14T18:58:07;4.25;;;3.00;;
23800;SDS011;12081;48.614;10.226;2023-06-14T19:00:51;3.35;;;3.00;;
23800;SDS011;12081;48.614;10.226;2023-06-14T19:03:35;5.32;;;3.17;;
23800;SDS011;12081;48.614;10.226;2023-06-14T19:06:19;5.90;;;3.15;;
23800;SDS011;12081;48.614;10.226;2023-06-14T19:09:03;6.60;;;3.20;;
23800;SDS011;12081;48.614;10.226;2023-06-14T19:11:47;9.25;;;3.00;;
23800;SDS011;12081;48.614;10.226;2023-06-14T19:14:32;4.53;;;3.17;;
23800;SDS011;12081;48.614;10.226;2023-06-14T19:17:16;5.13;;;3.17;;
23800;SDS011;12081;48.614;10.226;2023-06-14T19:20:00;7.00;;;3.10;;